Time;durP1;ratioP1;P1;durP2;ratioP2;P2;SDS_P1;SDS_P2;PMS_P1;PMS_P2;Temp;Humidity;BMP_temperature;BMP_pressure;BME280_temperature;BME280_humidity;BME280_pressure;Samples;Min_cycle;Max_cycle;Signal;HPM_P1;HPM_P2
2021/07/08 00:02:22;;;;;;;;;;;;;;;-142.75;67.17;77111.66;5057130;28;19916;-77
2021/07/08 00:04:47;;;;;;;;;;;;;;;-142.75;66.08;77090.00;5055017;28;19921;-78
2021/07/08 00:07:12;;;;;;;;;;;;;;;-142.75;66.14;77074.25;5052958;28;20294;-77
2021/07/08 00:09:38;;;;;;;;;;;;;;;-142.75;65.56;77066.38;5053877;28;19971;-77
2021/07/08 00:12:05;;;;;;;;;;;;;;;-142.75;65.96;77070.31;5055703;28;19925;-78
2021/07/08 00:14:30;;;;;;;;;;;;;;;-142.75;66.76;77072.28;5057064;28;19958;-77
2021/07/08 00:16:55;;;;;;;;;;;;;;;-142.75;66.75;77062.44;5055912;28;19916;-77
2021/07/08 00:19:20;;;;;;;;;;;;;;;-142.75;67.44;77064.41;5066268;28;19916;-77
2021/07/08 00:21:46;;;;;;;;;;;;;;;-142.75;67.24;77070.31;5056076;28;19924;-77
2021/07/08 00:24:11;;;;;;;;;;;;;;;-142.75;66.76;77064.41;5057637;28;20312;-77
2021/07/08 00:26:36;;;;;;;;;;;;;;;-142.75;67.32;77058.50;5056036;28;19917;-77
2021/07/08 00:29:02;;;;;;;;;;;;;;;-142.75;66.82;77072.28;5057965;28;20012;-77
2021/07/08 00:31:27;;;;;;;;;;;;;;;-142.75;66.82;77086.06;5057267;28;19944;-77
2021/07/08 00:33:52;;;;;;;;;;;;;;;-142.75;66.87;77105.75;5058360;28;19929;-77
2021/07/08 00:36:17;;;;;;;;;;;;;;;-142.75;67.12;77113.63;5056817;28;19917;-78
2021/07/08 00:38:42;;;;;;;;;;;;;;;-142.75;68.73;77129.38;5056777;28;19916;-77
2021/07/08 00:41:08;;;;;;;;;;;;;;;-142.75;69.62;77145.13;5055340;28;19924;-77
2021/07/08 00:43:33;;;;;;;;;;;;;;;-142.75;69.53;77143.16;5053079;28;19931;-77
2021/07/08 00:46:00;;;;;;;;;;;;;;;-142.75;70.47;77135.28;5055729;28;19917;-77
2021/07/08 00:48:25;;;;;;;;;;;;;;;-142.75;71.20;77135.28;5075625;28;19983;-77
2021/07/08 00:50:51;;;;;;;;;;;;;;;-142.75;70.89;77149.06;5074976;28;19917;-77
2021/07/08 00:53:17;;;;;;;;;;;;;;;-142.75;70.10;77153.00;5072430;28;19989;-76
2021/07/08 00:55:44;;;;;;;;;;;;;;;-142.75;70.75;77149.06;5053800;28;19916;-77
2021/07/08 00:58:10;;;;;;;;;;;;;;;-142.75;70.68;77149.06;5052789;28;19948;-78
2021/07/08 01:00:36;;;;;;;;;;;;;;;-142.75;70.79;77156.94;5057531;28;19923;-77
2021/07/08 01:03:07;;;;;;;;;;;;;;;-142.75;71.27;77162.84;5074764;28;19923;-77
2021/07/08 01:05:33;;;;;;;;;;;;;;;-142.75;71.40;77160.88;5054520;28;19917;-77
2021/07/08 01:07:59;;;;;;;;;;;;;;;-142.75;70.89;77164.81;5060000;28;19917;-77
2021/07/08 01:10:25;;;;;;;;;;;;;;;-142.75;70.04;77170.72;5060296;28;19920;-78
2021/07/08 01:12:50;;;;;;;;;;;;;;;-142.75;69.75;77176.63;5057673;28;20046;-78
2021/07/08 01:15:16;;;;;;;;;;;;;;;-142.75;69.63;77182.53;5057686;28;19917;-77
2021/07/08 01:17:43;;;;;;;;;;;;;;;-142.75;69.89;77188.44;5060232;28;19931;-77
2021/07/08 01:20:10;;;;;;;;;;;;;;;-142.75;69.92;77186.47;5062919;28;19917;-77
2021/07/08 01:22:35;;;;;;;;;;;;;;;-142.75;70.18;77188.44;5057178;28;19944;-77
2021/07/08 01:25:01;;;;;;;;;;;;;;;-142.75;70.10;77184.50;5055992;28;19923;-77
2021/07/08 01:27:26;;;;;;;;;;;;;;;-142.75;69.97;77178.59;5057442;28;19921;-77
2021/07/08 01:29:53;;;;;;;;;;;;;;;-142.75;69.74;77166.78;5065272;28;19970;-76
2021/07/08 01:32:18;;;;;;;;;;;;;;;-142.75;69.75;77172.69;5073400;28;19924;-77
2021/07/08 01:34:43;;;;;;;;;;;;;;;-142.75;69.71;77172.69;5059613;28;20394;-77
2021/07/08 01:37:08;;;;;;;;;;;;;;;-142.75;69.76;77172.69;5057297;28;19947;-78
2021/07/08 01:39:33;;;;;;;;;;;;;;;-142.75;69.39;77172.69;5057538;28;19943;-78
2021/07/08 01:41:59;;;;;;;;;;;;;;;-142.75;69.32;77176.63;5055896;28;19924;-78
2021/07/08 01:44:24;;;;;;;;;;;;;;;-142.75;69.45;77184.50;5056960;28;19931;-77
2021/07/08 01:46:49;;;;;;;;;;;;;;;-142.75;69.78;77186.47;5057896;28;19999;-77
2021/07/08 01:49:15;;;;;;;;;;;;;;;-142.75;69.63;77180.56;5055659;28;19923;-77
2021/07/08 01:51:41;;;;;;;;;;;;;;;-142.75;70.62;77192.38;5068798;28;19916;-77
2021/07/08 01:54:09;;;;;;;;;;;;;;;-142.75;70.54;77196.31;5056534;28;19921;-77
2021/07/08 01:56:34;;;;;;;;;;;;;;;-142.75;70.42;77196.31;5073383;28;19920;-77
2021/07/08 01:59:00;;;;;;;;;;;;;;;-142.75;70.37;77184.50;5057850;28;19987;-76
2021/07/08 02:01:26;;;;;;;;;;;;;;;-142.75;70.51;77178.59;5055427;28;20009;-77
2021/07/08 02:03:51;;;;;;;;;;;;;;;-142.75;70.66;77182.53;5049924;28;19916;-77
2021/07/08 02:06:17;;;;;;;;;;;;;;;-142.75;70.43;77182.53;5057795;28;19917;-77
2021/07/08 02:08:42;;;;;;;;;;;;;;;-142.75;70.27;77178.59;5055502;28;20007;-77
2021/07/08 02:11:09;;;;;;;;;;;;;;;-142.75;70.30;77172.69;5055520;28;19948;-77
2021/07/08 02:13:34;;;;;;;;;;;;;;;-142.75;70.88;77154.97;5059512;28;19970;-77
2021/07/08 02:16:00;;;;;;;;;;;;;;;-142.75;70.85;77135.28;5071824;28;19916;-77
2021/07/08 02:18:26;;;;;;;;;;;;;;;-142.75;69.84;77125.44;5052980;28;19924;-76
2021/07/08 02:20:51;;;;;;;;;;;;;;;-142.75;69.60;77111.66;5057773;28;19924;-77
2021/07/08 02:23:16;;;;;;;;;;;;;;;-142.75;69.17;77111.66;5058987;28;19916;-77
2021/07/08 02:25:41;;;;;;;;;;;;;;;-142.75;69.25;77105.75;5058390;28;19928;-77
2021/07/08 02:28:07;;;;;;;;;;;;;;;-142.75;69.16;77097.88;5058905;28;20321;-77
2021/07/08 02:30:32;;;;;;;;;;;;;;;-142.75;69.09;77097.88;5053921;28;19916;-77
2021/07/08 02:32:57;;;;;;;;;;;;;;;-142.75;68.82;77091.97;5055486;28;19931;-77
2021/07/08 02:35:24;;;;;;;;;;;;;;;-142.75;69.04;77091.97;5058414;28;19932;-77
2021/07/08 02:37:49;;;;;;;;;;;;;;;-142.75;69.52;77090.00;5058441;28;19920;-77
2021/07/08 02:40:16;;;;;;;;;;;;;;;-142.75;69.57;77088.03;5060225;28;19976;-77
2021/07/08 02:42:42;;;;;;;;;;;;;;;-142.75;69.93;77082.13;5060835;28;19923;-77
2021/07/08 02:45:07;;;;;;;;;;;;;;;-142.75;69.81;77086.06;5061937;28;19916;-77
2021/07/08 02:47:33;;;;;;;;;;;;;;;-142.75;69.62;77097.88;5063309;28;19916;-77
2021/07/08 02:49:58;;;;;;;;;;;;;;;-142.75;69.25;77097.88;5060670;28;20532;-77
2021/07/08 02:52:23;;;;;;;;;;;;;;;-142.75;69.35;77101.81;5058810;28;19928;-77
2021/07/08 02:54:48;;;;;;;;;;;;;;;-142.75;69.25;77105.75;5060621;28;19936;-77
2021/07/08 02:57:14;;;;;;;;;;;;;;;-142.75;69.30;77119.53;5060055;28;19927;-77
2021/07/08 02:59:39;;;;;;;;;;;;;;;-142.75;69.31;77139.22;5059923;28;19917;-77
2021/07/08 03:02:04;;;;;;;;;;;;;;;-142.75;69.82;77162.84;5058862;28;19924;-77
2021/07/08 03:04:29;;;;;;;;;;;;;;;-142.75;70.52;77182.53;5057969;28;20437;-77
2021/07/08 03:06:54;;;;;;;;;;;;;;;-142.75;71.78;77200.25;5060524;28;20007;-76
2021/07/08 03:09:20;;;;;;;;;;;;;;;-142.75;71.27;77200.25;5075060;28;19917;-76
2021/07/08 03:11:45;;;;;;;;;;;;;;;-142.75;71.07;77212.06;5057953;28;20416;-76
2021/07/08 03:14:10;;;;;;;;;;;;;;;-142.75;71.29;77204.19;5058894;28;19964;-77
2021/07/08 03:16:35;;;;;;;;;;;;;;;-142.75;71.40;77202.22;5055703;28;19917;-76
2021/07/08 03:19:00;;;;;;;;;;;;;;;-142.75;71.58;77200.25;5056767;28;19970;-76
2021/07/08 03:21:26;;;;;;;;;;;;;;;-142.75;71.60;77194.34;5054250;28;19929;-77
2021/07/08 03:23:51;;;;;;;;;;;;;;;-142.75;71.53;77196.31;5072477;28;19916;-76
2021/07/08 03:26:16;;;;;;;;;;;;;;;-142.75;71.58;77188.44;5061625;28;19979;-77
2021/07/08 03:28:41;;;;;;;;;;;;;;;-142.75;71.70;77176.63;5059870;28;19969;-76
2021/07/08 03:31:06;;;;;;;;;;;;;;;-142.75;71.57;77176.63;5059533;28;19923;-76
2021/07/08 03:33:31;;;;;;;;;;;;;;;-142.75;72.01;77186.47;5060515;28;19958;-76
2021/07/08 03:35:57;;;;;;;;;;;;;;;-142.75;72.63;77182.53;5061930;28;19916;-76
2021/07/08 03:38:22;;;;;;;;;;;;;;;-142.75;72.69;77168.75;5065695;28;20015;-77
2021/07/08 03:40:47;;;;;;;;;;;;;;;-142.75;72.22;77162.84;5059880;28;19942;-77
2021/07/08 03:43:12;;;;;;;;;;;;;;;-142.75;72.35;77153.00;5061863;28;19984;-77
2021/07/08 03:45:38;;;;;;;;;;;;;;;-142.75;72.12;77154.97;5053423;28;20003;-77
2021/07/08 03:48:03;;;;;;;;;;;;;;;-142.75;72.01;77156.94;5057443;28;19921;-77
2021/07/08 03:50:28;;;;;;;;;;;;;;;-142.75;72.05;77147.09;5059952;28;20003;-77
2021/07/08 03:52:54;;;;;;;;;;;;;;;-142.75;71.54;77137.25;5057761;28;19988;-77
2021/07/08 03:55:20;;;;;;;;;;;;;;;-142.75;71.24;77137.25;5058907;28;19971;-76
2021/07/08 03:57:56;;;;;;;;;;;;;;;-142.75;71.78;77129.38;5060406;28;19916;-77
2021/07/08 04:00:22;;;;;;;;;;;;;;;-142.75;71.55;77141.19;5077790;28;19962;-77
2021/07/08 04:02:47;;;;;;;;;;;;;;;-142.75;71.99;77145.13;5077644;28;19916;-77
2021/07/08 04:05:13;;;;;;;;;;;;;;;-142.75;71.76;77141.19;5054574;28;19917;-77
2021/07/08 04:07:38;;;;;;;;;;;;;;;-142.75;71.04;77141.19;5056923;28;19970;-76
2021/07/08 04:10:03;;;;;;;;;;;;;;;-142.75;70.94;77133.31;5055834;28;20223;-77
2021/07/08 04:12:29;;;;;;;;;;;;;;;-142.75;70.82;77133.31;5058904;28;20011;-77
2021/07/08 04:14:54;;;;;;;;;;;;;;;-142.75;70.89;77121.50;5059472;28;19920;-76
2021/07/08 04:17:19;;;;;;;;;;;;;;;-142.75;71.04;77115.59;5057196;28;19944;-77
2021/07/08 04:19:44;;;;;;;;;;;;;;;-142.75;70.86;77111.66;5058090;28;19921;-77
2021/07/08 04:22:09;;;;;;;;;;;;;;;-142.75;70.73;77103.78;5078063;28;19916;-77
2021/07/08 04:24:34;;;;;;;;;;;;;;;-142.75;70.84;77105.75;5063192;28;20394;-77
2021/07/08 04:27:00;;;;;;;;;;;;;;;-142.75;70.99;77105.75;5067693;28;19944;-77
2021/07/08 04:29:25;;;;;;;;;;;;;;;-142.75;71.42;77111.66;5065675;28;19925;-77
2021/07/08 04:31:50;;;;;;;;;;;;;;;-142.75;71.73;77125.44;5055019;28;20289;-77
2021/07/08 04:34:15;;;;;;;;;;;;;;;-142.75;72.14;77131.34;5057410;28;19921;-77
2021/07/08 04:36:40;;;;;;;;;;;;;;;-142.75;72.09;77135.28;5058507;28;19916;-77
2021/07/08 04:39:06;;;;;;;;;;;;;;;-142.75;72.28;77129.38;5070470;28;19932;-76
2021/07/08 04:41:31;;;;;;;;;;;;;;;-142.75;72.35;77119.53;5079367;22;20383;-79
2021/07/08 04:43:56;;;;;;;;;;;;;;;-142.75;71.84;77105.75;5051157;28;19921;-77
2021/07/08 04:46:24;;;;;;;;;;;;;;;-142.75;71.84;77099.84;5043107;28;19921;-78
2021/07/08 04:48:49;;;;;;;;;;;;;;;-142.75;72.00;77107.72;5042722;28;19920;-77
2021/07/08 04:51:14;;;;;;;;;;;;;;;-142.75;72.15;77107.72;5059024;28;20275;-77
2021/07/08 04:53:39;;;;;;;;;;;;;;;-142.75;72.07;77105.75;5052732;28;19921;-78
2021/07/08 04:56:05;;;;;;;;;;;;;;;-142.75;71.17;77105.75;5052283;28;20011;-78
2021/07/08 04:58:30;;;;;;;;;;;;;;;-142.75;70.68;77107.72;5054284;28;20074;-77
2021/07/08 05:00:55;;;;;;;;;;;;;;;-142.75;70.09;77117.56;5039696;28;19917;-76
2021/07/08 05:03:21;;;;;;;;;;;;;;;-142.75;69.75;77115.59;5051360;28;19918;-78
2021/07/08 05:05:47;;;;;;;;;;;;;;;-142.75;70.30;77117.56;5037477;28;19958;-77
2021/07/08 05:08:12;;;;;;;;;;;;;;;-142.75;70.10;77086.06;5056894;28;20408;-78
2021/07/08 05:10:37;;;;;;;;;;;;;;;-142.75;69.33;77080.16;5042506;28;19924;-76
2021/07/08 05:13:03;;;;;;;;;;;;;;;-142.75;69.07;77070.31;5038812;28;19916;-77
2021/07/08 05:15:28;;;;;;;;;;;;;;;-142.75;69.83;77076.22;5051836;28;20004;-77
2021/07/08 05:17:53;;;;;;;;;;;;;;;-142.75;70.15;77091.97;5050696;28;19995;-77
2021/07/08 05:20:18;;;;;;;;;;;;;;;-142.75;70.00;77084.09;5044399;28;20037;-78
2021/07/08 05:22:47;;;;;;;;;;;;;;;-142.75;69.98;77070.31;5041989;28;20294;-77
2021/07/08 05:25:14;;;;;;;;;;;;;;;-142.75;69.50;77062.44;5049544;28;19944;-77
2021/07/08 05:27:39;;;;;;;;;;;;;;;-142.75;69.54;77052.59;5037072;28;19916;-78
2021/07/08 05:30:05;;;;;;;;;;;;;;;-142.75;69.69;77042.75;5050993;28;19928;-78
2021/07/08 05:32:30;;;;;;;;;;;;;;;-142.75;69.84;77034.88;5039948;28;20438;-79
2021/07/08 05:34:56;;;;;;;;;;;;;;;-142.75;69.90;77028.97;5039331;28;20016;-78
2021/07/08 05:37:21;;;;;;;;;;;;;;;-142.75;69.84;77013.22;5059955;28;19917;-79
2021/07/08 05:39:46;;;;;;;;;;;;;;;-142.75;69.97;77007.31;5040286;28;20428;-76
2021/07/08 05:42:11;;;;;;;;;;;;;;;-142.75;69.95;76995.50;5050679;28;19928;-79
2021/07/08 05:44:37;;;;;;;;;;;;;;;-142.75;69.68;76999.44;5051217;28;19955;-77
2021/07/08 05:47:02;;;;;;;;;;;;;;;-142.75;68.60;77001.41;5051789;28;19986;-78
2021/07/08 05:49:27;;;;;;;;;;;;;;;-142.75;67.35;77003.38;5041012;28;20343;-77
2021/07/08 05:51:52;;;;;;;;;;;;;;;-142.75;66.08;76999.44;5049473;28;20271;-77
2021/07/08 05:54:18;;;;;;;;;;;;;;;-142.75;65.91;76991.56;5052275;28;19928;-78
2021/07/08 05:56:43;;;;;;;;;;;;;;;-142.75;65.74;76979.75;5052213;28;19924;-79
2021/07/08 05:59:08;;;;;;;;;;;;;;;-142.75;65.77;76971.88;5042331;28;19964;-78
2021/07/08 06:01:33;;;;;;;;;;;;;;;-142.75;65.49;76962.03;5043340;28;19923;-79
2021/07/08 06:03:58;;;;;;;;;;;;;;;-142.75;65.50;76958.09;5044197;28;19917;-78
2021/07/08 06:06:24;;;;;;;;;;;;;;;-142.75;65.88;76944.31;5058822;28;20281;-78
2021/07/08 06:08:49;;;;;;;;;;;;;;;-142.75;65.93;76936.44;5051555;28;19916;-78
2021/07/08 06:11:14;;;;;;;;;;;;;;;-142.75;65.59;76934.47;5042123;28;19917;-77
2021/07/08 06:13:40;;;;;;;;;;;;;;;-142.75;65.31;76928.56;5036720;28;19943;-78
2021/07/08 06:16:05;;;;;;;;;;;;;;;-142.75;64.69;76926.59;5051677;28;19952;-77
2021/07/08 06:18:30;;;;;;;;;;;;;;;-142.75;64.18;76912.81;5051793;28;19924;-78
2021/07/08 06:20:56;;;;;;;;;;;;;;;-142.75;64.10;76902.97;5041411;28;20007;-78
2021/07/08 06:23:21;;;;;;;;;;;;;;;-142.75;62.75;76893.13;5043514;28;20335;-78
2021/07/08 06:25:47;;;;;;;;;;;;;;;-142.75;61.46;76881.31;5052968;28;19968;-79
2021/07/08 06:28:14;;;;;;;;;;;;;;;-142.75;62.62;76873.44;5056007;28;19928;-81
2021/07/08 06:30:39;;;;;;;;;;;;;;;-142.75;60.79;76861.63;5042797;28;19923;-77
2021/07/08 06:33:04;;;;;;;;;;;;;;;-142.75;60.85;76838.00;5042295;28;20366;-78
2021/07/08 06:35:29;;;;;;;;;;;;;;;-142.75;60.56;76838.00;5052028;28;19916;-78
2021/07/08 06:37:55;;;;;;;;;;;;;;;-142.75;60.34;76814.38;5052463;28;19917;-77
2021/07/08 06:40:20;;;;;;;;;;;;;;;-142.75;60.99;76790.78;5052301;28;19917;-78
2021/07/08 06:42:45;;;;;;;;;;;;;;;-142.75;59.85;76710.06;5059451;28;19917;-78
2021/07/08 06:45:12;;;;;;;;;;;;;;;-142.75;56.92;76601.78;5053322;28;19956;-79
2021/07/08 06:47:46;;;;;;;;;;;;;;;-142.75;54.41;76487.63;5060761;28;19946;-77
2021/07/08 06:50:12;;;;;;;;;;;;;;;-142.75;51.93;76377.38;5052175;28;19959;-77
2021/07/08 06:52:38;;;;;;;;;;;;;;;-142.75;49.15;76278.97;5051424;28;19917;-77
2021/07/08 06:55:04;;;;;;;;;;;;;;;-142.75;48.37;76217.94;5060299;28;19982;-77
2021/07/08 06:57:29;;;;;;;;;;;;;;;-142.75;47.83;76154.97;5044310;28;19917;-78
2021/07/08 06:59:54;;;;;;;;;;;;;;;-142.75;47.02;76131.34;5053036;28;20290;-78
2021/07/08 07:02:19;;;;;;;;;;;;;;;-142.75;45.53;76125.44;5050382;28;19940;-78
2021/07/08 07:04:45;;;;;;;;;;;;;;;-142.75;46.39;76115.59;5046338;28;20298;-78
2021/07/08 07:07:10;;;;;;;;;;;;;;;-142.75;46.29;76072.31;5053154;28;19917;-79
2021/07/08 07:09:35;;;;;;;;;;;;;;;-142.75;46.18;76046.72;5045085;28;19951;-79
2021/07/08 07:12:00;;;;;;;;;;;;;;;-142.75;44.59;75995.53;5037139;28;19917;-78
2021/07/08 07:14:25;;;;;;;;;;;;;;;-142.75;44.33;75983.72;5049737;28;19921;-77
2021/07/08 07:16:51;;;;;;;;;;;;;;;-142.75;42.80;75962.09;5042653;28;19917;-78
2021/07/08 07:19:16;;;;;;;;;;;;;;;-142.75;42.10;75946.34;5035607;28;19917;-78
2021/07/08 07:21:41;;;;;;;;;;;;;;;-142.75;42.99;75914.84;5037204;28;19925;-77
2021/07/08 07:24:06;;;;;;;;;;;;;;;-142.75;40.80;75883.34;5043482;28;20386;-78
2021/07/08 07:26:32;;;;;;;;;;;;;;;-142.75;38.91;75869.56;5054114;28;19935;-77
2021/07/08 07:28:57;;;;;;;;;;;;;;;-142.75;39.52;75834.16;5043820;28;19917;-77
2021/07/08 07:31:22;;;;;;;;;;;;;;;-142.75;39.39;75765.25;5042432;28;19917;-77
2021/07/08 07:33:47;;;;;;;;;;;;;;;-142.75;37.49;75723.94;5045485;28;19925;-78
2021/07/08 07:36:13;;;;;;;;;;;;;;;-142.75;37.59;75684.56;5044504;28;19917;-78
2021/07/08 07:38:39;;;;;;;;;;;;;;;-142.75;38.52;75641.28;5053398;28;19925;-78
2021/07/08 07:41:04;;;;;;;;;;;;;;;-142.75;36.80;75574.38;5043004;28;19916;-79
2021/07/08 07:43:29;;;;;;;;;;;;;;;-142.75;36.80;75558.63;5053833;28;19940;-78
2021/07/08 07:45:54;;;;;;;;;;;;;;;-142.75;35.68;75531.06;5043237;28;20306;-78
2021/07/08 07:48:20;;;;;;;;;;;;;;;-142.75;35.95;75505.50;5054049;28;19916;-77
2021/07/08 07:50:45;;;;;;;;;;;;;;;-142.75;34.40;75475.97;5052793;28;20286;-78
2021/07/08 07:53:10;;;;;;;;;;;;;;;-142.75;35.04;75446.44;5048758;28;19977;-78
2021/07/08 07:55:36;;;;;;;;;;;;;;;-142.75;34.43;75436.59;5038988;28;19931;-78
2021/07/08 07:58:02;;;;;;;;;;;;;;;-142.75;35.00;75444.47;5045491;28;19917;-78
2021/07/08 08:00:27;;;;;;;;;;;;;;;-142.75;34.69;75450.38;5041835;28;19924;-78
2021/07/08 08:02:53;;;;;;;;;;;;;;;-142.75;34.91;75505.50;5049362;28;19927;-78
2021/07/08 08:10:37;;;;;;;;;;;;;;;-142.75;33.74;75383.47;5052226;28;19986;-78
2021/07/08 08:13:03;;;;;;;;;;;;;;;-142.75;33.65;75277.22;5051284;28;19960;-79
2021/07/08 08:15:28;;;;;;;;;;;;;;;-142.75;32.29;75247.69;5054577;28;19916;-79
2021/07/08 08:17:54;;;;;;;;;;;;;;;-142.75;31.82;75204.41;5052708;28;19962;-78
2021/07/08 08:20:19;;;;;;;;;;;;;;;-142.75;32.13;75188.66;5053623;28;20007;-79
2021/07/08 08:22:44;;;;;;;;;;;;;;;-142.75;31.63;75157.19;5042898;28;19976;-78
2021/07/08 08:25:11;;;;;;;;;;;;;;;-142.75;32.01;75133.56;5043585;28;19917;-76
2021/07/08 08:27:37;;;;;;;;;;;;;;;-142.75;32.46;75196.53;5053636;28;19993;-78
2021/07/08 08:30:03;;;;;;;;;;;;;;;-142.75;32.46;75180.78;5057893;28;20034;-78
2021/07/08 08:32:28;;;;;;;;;;;;;;;-142.75;31.16;75172.91;5042170;28;19943;-78
2021/07/08 08:34:53;;;;;;;;;;;;;;;-142.75;32.31;75292.97;5051864;28;19921;-78
2021/07/08 08:37:18;;;;;;;;;;;;;;;-142.75;32.33;75283.13;5051095;28;19917;-77
2021/07/08 08:39:43;;;;;;;;;;;;;;;-142.75;32.34;75371.66;5052037;28;19985;-78
2021/07/08 08:42:09;;;;;;;;;;;;;;;-142.75;33.48;75428.75;5051682;28;20428;-77
2021/07/08 08:44:34;;;;;;;;;;;;;;;-142.75;34.61;75558.63;5044497;28;19928;-77
2021/07/08 08:47:00;;;;;;;;;;;;;;;-142.75;34.39;75556.66;5053387;28;21476;-77
2021/07/08 08:49:25;;;;;;;;;;;;;;;-142.75;34.23;75491.72;5051276;28;19923;-78
2021/07/08 08:51:50;;;;;;;;;;;;;;;-142.75;33.78;75432.69;5052063;28;19916;-77
2021/07/08 08:54:16;;;;;;;;;;;;;;;-142.75;34.00;75261.47;5051615;28;20019;-77
2021/07/08 08:56:42;;;;;;;;;;;;;;;-142.75;32.28;75216.22;5065293;28;20449;-78
2021/07/08 08:59:07;;;;;;;;;;;;;;;-142.75;32.62;75334.28;5052784;28;19967;-76
2021/07/08 09:01:33;;;;;;;;;;;;;;;-142.75;33.08;75405.13;5052347;28;19940;-77
2021/07/08 09:03:58;;;;;;;;;;;;;;;-142.75;34.74;75513.38;5051854;28;20409;-77
2021/07/08 09:06:24;;;;;;;;;;;;;;;-142.75;34.04;75416.94;5051718;28;20328;-78
2021/07/08 09:08:50;;;;;;;;;;;;;;;-142.75;32.77;75291.00;5051977;28;19920;-76
2021/07/08 09:11:16;;;;;;;;;;;;;;;-142.75;32.59;75196.53;5042883;28;20286;-78
2021/07/08 09:13:41;;;;;;;;;;;;;;;-142.75;30.85;75106.00;5051187;28;19928;-77
2021/07/08 09:16:18;;;;;;;;;;;;;;;-142.75;30.21;75043.03;5052938;28;20134;-79
2021/07/08 09:18:43;;;;;;;;;;;;;;;-142.75;31.33;75153.25;5052109;28;19953;-78
2021/07/08 09:21:20;;;;;;;;;;;;;;;-142.75;31.66;75220.16;5051035;28;19917;-78
2021/07/08 09:24:04;;;;;;;;;;;;;;;-142.75;32.33;75283.13;5052353;28;19916;-79
2021/07/08 09:26:29;;;;;;;;;;;;;;;-142.75;32.56;75283.13;5051944;28;20029;-78
2021/07/08 09:29:08;;;;;;;;;;;;;;;-142.75;31.67;75432.69;5045274;28;19971;-78
2021/07/08 09:31:35;;;;;;;;;;;;;;;-142.75;33.38;75454.31;5037663;28;19917;-77
2021/07/08 09:34:12;;;;;;;;;;;;;;;-142.75;34.97;75495.66;5037423;28;19921;-78
2021/07/08 09:36:38;;;;;;;;;;;;;;;-142.75;34.81;75485.81;5038659;28;19925;-78
2021/07/08 09:39:03;;;;;;;;;;;;;;;-142.75;34.84;75497.63;5052967;28;19920;-78
2021/07/08 09:41:29;;;;;;;;;;;;;;;-142.75;33.74;75613.72;5050045;28;19916;-78
2021/07/08 09:43:54;;;;;;;;;;;;;;;-142.75;35.33;75578.31;5050402;28;19917;-78
2021/07/08 09:46:32;;;;;;;;;;;;;;;-142.75;35.75;75794.78;5044935;28;19923;-79
2021/07/08 09:49:04;;;;;;;;;;;;;;;-142.75;36.39;75798.72;5051573;28;19917;-77
2021/07/08 09:51:30;;;;;;;;;;;;;;;-142.75;37.98;75899.09;5036613;28;20330;-77
2021/07/08 09:54:04;;;;;;;;;;;;;;;-142.75;37.85;75834.16;5042819;28;19996;-79
2021/07/08 09:56:43;;;;;;;;;;;;;;;-142.75;37.54;75861.69;5050915;28;19916;-77
2021/07/08 09:59:08;;;;;;;;;;;;;;;-142.75;38.10;75826.28;5043299;28;20379;-79
2021/07/08 10:01:34;;;;;;;;;;;;;;;-142.75;38.31;75676.69;5051983;28;19947;-78
2021/07/08 10:03:59;;;;;;;;;;;;;;;-142.75;36.25;75641.28;5051415;28;19923;-79
2021/07/08 10:06:25;;;;;;;;;;;;;;;-142.75;36.07;75558.63;5047079;28;20012;-78
2021/07/08 10:08:52;;;;;;;;;;;;;;;-142.75;33.95;75617.66;5051119;28;19999;-77
2021/07/08 10:11:21;;;;;;;;;;;;;;;-142.75;36.44;75629.47;5050638;28;19923;-78
2021/07/08 10:13:47;;;;;;;;;;;;;;;-142.75;35.01;75678.66;5044525;28;20036;-78
2021/07/08 10:16:13;;;;;;;;;;;;;;;-142.75;36.72;75721.97;5051913;28;20390;-78
2021/07/08 10:18:40;;;;;;;;;;;;;;;-142.75;37.29;75781.00;5057906;28;19984;-79
2021/07/08 10:21:05;;;;;;;;;;;;;;;-142.75;37.73;75869.56;5051919;28;20011;-78
2021/07/08 10:23:34;;;;;;;;;;;;;;;-142.75;36.84;75928.63;5040946;28;20438;-78
2021/07/08 10:26:00;;;;;;;;;;;;;;;-142.75;38.05;75938.47;5049681;28;19948;-77
2021/07/08 10:28:26;;;;;;;;;;;;;;;-142.75;39.19;75964.03;5042382;28;19924;-78
2021/07/08 10:30:52;;;;;;;;;;;;;;;-142.75;39.93;75975.84;5050684;28;20379;-78
2021/07/08 10:33:19;;;;;;;;;;;;;;;-142.75;39.41;75995.53;5051148;28;19932;-79
2021/07/08 10:35:46;;;;;;;;;;;;;;;-142.75;37.99;76027.03;5050647;28;19939;-76
2021/07/08 10:38:26;;;;;;;;;;;;;;;-142.75;39.36;76139.22;5039048;28;19924;-77
2021/07/08 10:43:35;;;;;;;;;;;;;;;-142.75;40.00;76062.47;5072173;28;19947;-78
2021/07/08 10:46:01;;;;;;;;;;;;;;;-142.75;39.57;76109.69;5072662;28;19921;-78
2021/07/08 10:48:36;;;;;;;;;;;;;;;-142.75;41.75;76088.03;5071907;28;19920;-78
2021/07/08 10:51:02;;;;;;;;;;;;;;;-142.75;41.49;76058.53;5072128;28;19944;-79
2021/07/08 10:53:31;;;;;;;;;;;;;;;-142.75;40.38;76036.88;5072246;28;20333;-77
2021/07/08 10:55:57;;;;;;;;;;;;;;;-142.75;41.35;76005.38;5072833;28;19916;-78
2021/07/08 10:58:35;;;;;;;;;;;;;;;-142.75;41.52;75997.50;5074356;28;19917;-79
2021/07/08 11:01:00;;;;;;;;;;;;;;;-142.75;41.34;75983.72;5080475;28;19916;-79
2021/07/08 11:03:31;;;;;;;;;;;;;;;-142.75;41.27;75975.84;5080804;28;19916;-79
2021/07/08 11:05:57;;;;;;;;;;;;;;;-142.75;42.27;75881.38;5082141;28;19916;-78
2021/07/08 11:08:41;;;;;;;;;;;;;;;-142.75;40.25;75670.81;5095351;28;20007;-78
2021/07/08 11:11:07;;;;;;;;;;;;;;;-142.75;36.94;75540.91;5075350;28;20564;-78
2021/07/08 11:13:34;;;;;;;;;;;;;;;-142.75;36.67;75613.72;5080832;28;19920;-78
2021/07/08 11:16:00;;;;;;;;;;;;;;;-142.75;36.37;75718.03;5078086;28;19924;-78
2021/07/08 11:18:30;;;;;;;;;;;;;;;-142.75;39.08;75796.75;5079225;28;19917;-78
2021/07/08 11:20:55;;;;;;;;;;;;;;;-142.75;39.69;75869.56;5077370;28;20015;-79
2021/07/08 11:23:26;;;;;;;;;;;;;;;-142.75;39.62;75905.00;5077094;28;19960;-78
2021/07/08 11:25:51;;;;;;;;;;;;;;;-142.75;39.36;75845.97;5073488;28;19969;-78
2021/07/08 11:28:25;;;;;;;;;;;;;;;-142.75;38.16;75818.41;5076206;28;19958;-79
2021/07/08 11:30:56;;;;;;;;;;;;;;;-142.75;38.38;75844.00;5075517;28;19916;-78
2021/07/08 11:33:21;;;;;;;;;;;;;;;-142.75;39.19;75781.00;5077311;28;19924;-78
2021/07/08 11:35:54;;;;;;;;;;;;;;;-142.75;37.09;75759.38;5075795;28;19917;-79
2021/07/08 11:38:20;;;;;;;;;;;;;;;-142.75;38.13;75804.63;5077460;28;19917;-79
2021/07/08 11:40:47;;;;;;;;;;;;;;;-142.75;38.75;75844.00;5075627;28;19923;-78
2021/07/08 11:43:31;;;;;;;;;;;;;;;-142.75;39.59;75806.59;5075043;28;19917;-78
2021/07/08 11:46:04;;;;;;;;;;;;;;;-142.75;37.97;75684.56;5075923;28;20011;-79
2021/07/08 11:48:30;;;;;;;;;;;;;;;-142.75;36.02;75586.19;5077982;28;20286;-78
2021/07/08 11:50:56;;;;;;;;;;;;;;;-142.75;36.30;75558.63;5076188;28;19916;-78
2021/07/08 11:53:21;;;;;;;;;;;;;;;-142.75;35.49;75641.28;5078676;28;19920;-78
2021/07/08 11:55:47;;;;;;;;;;;;;;;-142.75;36.19;75720.00;5076793;28;20282;-80
2021/07/08 11:58:14;;;;;;;;;;;;;;;-142.75;37.98;75820.38;5076237;28;19916;-79
2021/07/08 12:00:45;;;;;;;;;;;;;;;-142.75;38.21;75845.97;5073274;28;20047;-79
2021/07/08 12:03:20;;;;;;;;;;;;;;;-142.75;37.45;75824.31;5073077;28;19927;-78
2021/07/08 12:05:46;;;;;;;;;;;;;;;-142.75;36.83;75769.19;5074168;28;20344;-80
2021/07/08 12:08:21;;;;;;;;;;;;;;;-142.75;35.96;75790.84;5072976;28;19916;-78
2021/07/08 12:10:47;;;;;;;;;;;;;;;-142.75;37.83;75820.38;5072011;28;19917;-77
2021/07/08 12:13:15;;;;;;;;;;;;;;;-142.75;38.88;75859.72;5073440;28;19916;-78
2021/07/08 12:15:41;;;;;;;;;;;;;;;-142.75;37.86;75873.50;5074958;28;19920;-79
2021/07/08 12:18:06;;;;;;;;;;;;;;;-142.75;38.43;75887.28;5075242;28;19962;-78
2021/07/08 12:20:36;;;;;;;;;;;;;;;-142.75;37.79;75912.88;5073215;28;19939;-78
2021/07/08 12:23:08;;;;;;;;;;;;;;;-142.75;38.22;75908.94;5075110;28;19939;-79
2021/07/08 12:25:33;;;;;;;;;;;;;;;-142.75;40.38;75928.63;5074437;28;19917;-79
2021/07/08 12:27:59;;;;;;;;;;;;;;;-142.75;38.13;75899.09;5076491;28;19977;-80
2021/07/08 12:30:25;;;;;;;;;;;;;;;-142.75;39.42;75847.94;5073870;28;19924;-78
2021/07/08 12:33:09;;;;;;;;;;;;;;;-142.75;38.80;75857.78;5073918;28;20003;-78